Accueil
METAR-TAF:

METAR-TAF

Aéroports :

Mountain Empire Airport

Marion / Wytheville, Virginie, États-Unis

latitude: 36-54N, longitude: 081-21W, altitude: 780 m

Observation

Le bulletin a été fait il y a 22 minutes, à 19:55 UTC
Vent 15 kt de ouest avec des rafales jusqu'à 22 kt
Température 11°C
Humidité 47%
Pression 1019 hPa
Visibilité: 16.1 km
Nuages épars à une hauteur de 11000 ft

METAR: KMKJ 161955Z AUTO 27015G22KT 10SM SCT110 11/00 A3009 RMK AO2 T01101002

Heure: 15:17 (20:17 UTC)


TAF: absent

Observations et prévisions météorologiques de plus de 4000 aéroports (messages METAR et TAF).

Les stations disponibles sont représentées par des disques jaunes et rouges sur la carte.

Passer la souris dessus pour voir le nom de la station.

Cliquer dessus pour voir les observations et prévisions météorologiques.

Pour changer de carte: cliquez sur les boutons verts avec une croix noire pour zoomer, sur le bouton vert avec un tiret pour effectuer un zoom arrière, ou sur les flèches vertes pour les cartes adjacentes.


METAR-TAF: